Portada
METAR-TAF:

METAR-TAF

Aeropuertos :

Plataforma petrolífera

Snorre A, Noruega

latitud: 61-27N, longitud: 2-09E, altitud: 10 m

Observación

El informe se hizo hace 35 minutos, a las 13:20 UTC
Viento 8 kt del noreste con ráfagas de 22 kt
Temperatura 12°C
Humedad 94%
Presión 1009 hPa
Visibilidad 10 km o más

METAR: ENSE 141320Z AUTO 05008G22KT 9999 OVC007/// 12/11 Q1009 W///S5

Hora: 15:55 (13:55 UTC)


TAF: falta

Observaciones y pronósticos meteorológicos de más de 4000 aeropuertos (mensajes METAR y TAF).

Los puntos amarillos y rojos representan las estaciones disponibles.

Ponga el ratón en el punto deseado para ver el nombre de la estación.

Haga clic para ver las observaciones y los pronósticos meteorológicos.

Para cambiar el mapa : haga clic en los botones verdes con una cruz de color negro para hacer un zoom, en el botón verde con un guión para alejar o en las flechas verdes para mapas adyacentes.


METAR-TAF: